Terminal Aerodrome Forecast
Issued by NWS Shreveport, LA

Home | Current Version | Previous Version | Text Only | Print | Product List | Glossary On
Versions: 1 2 3 4 5 6 7 8 9 10 11 12 13
000
FTUS44 KSHV 011100
TAFTYR
TAF
KTYR 011138Z 0112/0212 03005KT 4SM BR OVC005
     FM011500 02006KT P6SM BKN005 OVC015
     FM011800 01007KT P6SM OVC015
     FM012100 01007KT P6SM OVC023
     FM020100 04005KT P6SM BKN025
     FM021000 03004KT 5SM BR OVC010=

USA.gov is the U.S. government's official web portal to all federal, state and local government web resources and services.